createdAt,value
2018-07-03T00:01:42.606Z,16.70
2018-07-03T00:04:16.396Z,16.60
2018-07-03T00:06:50.306Z,16.60
2018-07-03T00:09:24.130Z,16.60
2018-07-03T00:11:57.924Z,16.50
2018-07-03T00:14:31.835Z,16.50
2018-07-03T00:17:10.268Z,16.40
2018-07-03T00:19:44.146Z,16.40
2018-07-03T00:22:18.321Z,16.30
2018-07-03T00:24:52.201Z,16.30
2018-07-03T00:27:25.982Z,16.20
2018-07-03T00:29:59.964Z,16.20
2018-07-03T00:32:33.695Z,16.20
2018-07-03T00:35:07.653Z,16.20
2018-07-03T00:37:41.455Z,16.10
2018-07-03T00:40:15.393Z,16.10
2018-07-03T00:42:49.331Z,16.10
2018-07-03T00:45:23.145Z,16.10
2018-07-03T00:47:56.963Z,16.00
2018-07-03T00:50:30.834Z,16.00
2018-07-03T00:53:04.622Z,16.00
2018-07-03T00:55:38.463Z,15.90
2018-07-03T00:58:12.176Z,15.90
2018-07-03T01:00:46.046Z,15.80
2018-07-03T01:03:19.853Z,15.70
2018-07-03T01:05:53.644Z,15.70
2018-07-03T01:08:27.421Z,15.70
2018-07-03T01:11:01.338Z,15.70
2018-07-03T01:13:35.062Z,15.70
2018-07-03T01:16:08.895Z,15.60
2018-07-03T01:18:42.657Z,15.60
2018-07-03T01:21:16.435Z,15.60
2018-07-03T01:23:50.177Z,15.60
2018-07-03T01:26:23.980Z,15.50
2018-07-03T01:28:58.317Z,15.40
2018-07-03T01:31:32.039Z,15.40
2018-07-03T01:34:05.780Z,15.40
2018-07-03T01:36:39.521Z,15.30
2018-07-03T01:39:13.397Z,15.30
2018-07-03T01:41:47.180Z,15.30
2018-07-03T01:44:20.947Z,15.20
2018-07-03T01:46:54.721Z,15.20
2018-07-03T01:49:28.446Z,15.20
2018-07-03T01:52:02.295Z,15.20
2018-07-03T01:54:36.115Z,15.10
2018-07-03T01:57:09.934Z,15.10
2018-07-03T01:59:43.752Z,15.00
2018-07-03T02:02:17.686Z,15.00
2018-07-03T02:04:51.527Z,14.90
2018-07-03T02:07:25.447Z,14.90
2018-07-03T02:09:59.219Z,14.80
2018-07-03T02:12:33.035Z,14.80
2018-07-03T02:15:06.828Z,14.80
2018-07-03T02:17:40.693Z,14.70
2018-07-03T02:20:14.488Z,14.70
2018-07-03T02:22:48.627Z,14.70
2018-07-03T02:25:22.459Z,14.70
2018-07-03T02:27:56.323Z,14.70
2018-07-03T02:30:30.161Z,14.70
2018-07-03T02:33:04.012Z,14.70
2018-07-03T02:35:37.834Z,14.70
2018-07-03T02:38:11.637Z,14.60
2018-07-03T02:40:45.408Z,14.70
2018-07-03T02:43:19.242Z,14.70
2018-07-03T02:45:53.066Z,14.60
2018-07-03T02:48:26.860Z,14.60
2018-07-03T02:51:00.711Z,14.60
2018-07-03T02:53:34.492Z,14.50
2018-07-03T02:56:08.459Z,14.50
2018-07-03T02:58:42.353Z,14.40
2018-07-03T03:01:22.097Z,14.40
2018-07-03T03:03:56.539Z,14.40
2018-07-03T03:06:30.326Z,14.30
2018-07-03T03:09:04.661Z,14.30
2018-07-03T03:11:38.469Z,14.20
2018-07-03T03:14:12.374Z,14.20
2018-07-03T03:16:46.188Z,14.20
2018-07-03T03:19:19.985Z,14.20
2018-07-03T03:21:53.816Z,14.20
2018-07-03T03:24:27.956Z,14.20
2018-07-03T03:27:01.856Z,14.20
2018-07-03T03:29:35.656Z,14.20
2018-07-03T03:32:09.527Z,14.20
2018-07-03T03:34:43.364Z,14.30
2018-07-03T03:37:17.317Z,14.20
2018-07-03T03:39:51.152Z,14.30
2018-07-03T03:42:25.014Z,14.20
2018-07-03T03:44:58.802Z,14.20
2018-07-03T03:47:32.669Z,14.20
2018-07-03T03:50:06.850Z,14.20
2018-07-03T03:52:40.679Z,14.20
2018-07-03T03:55:14.420Z,14.20
2018-07-03T03:57:48.241Z,14.20
2018-07-03T04:00:22.030Z,14.10
2018-07-03T04:02:56.031Z,14.10
2018-07-03T04:05:29.774Z,14.20
2018-07-03T04:08:03.658Z,14.20
2018-07-03T04:10:37.477Z,14.20
2018-07-03T04:13:11.474Z,14.30
2018-07-03T04:15:45.274Z,14.30
2018-07-03T04:18:33.815Z,14.30
2018-07-03T04:21:09.513Z,14.40
2018-07-03T04:23:44.209Z,14.50
2018-07-03T04:26:18.118Z,14.60
2018-07-03T04:28:51.859Z,14.60
2018-07-03T04:31:24.372Z,14.70
2018-07-03T04:33:56.868Z,14.70
2018-07-03T04:36:29.280Z,14.80
2018-07-03T04:39:01.659Z,14.90
2018-07-03T04:41:34.141Z,14.90
2018-07-03T04:44:07.052Z,15.00
2018-07-03T04:49:11.391Z,15.20
2018-07-03T04:51:51.013Z,15.20
2018-07-03T04:54:23.424Z,15.20
2018-07-03T04:56:55.819Z,15.30
2018-07-03T04:59:28.234Z,15.40
2018-07-03T05:02:00.593Z,15.50
2018-07-03T05:04:33.020Z,15.50
2018-07-03T05:07:05.441Z,15.70
2018-07-03T05:09:37.820Z,15.70
2018-07-03T05:12:10.378Z,15.80
2018-07-03T05:14:42.830Z,15.90
2018-07-03T05:17:15.312Z,16.00
2018-07-03T05:19:50.855Z,16.00
2018-07-03T05:22:26.449Z,16.10
2018-07-03T05:25:00.481Z,16.20
2018-07-03T05:27:34.267Z,16.30
2018-07-03T05:30:08.984Z,16.40
2018-07-03T05:32:42.695Z,16.50
2018-07-03T05:35:15.577Z,16.60
2018-07-03T05:37:48.096Z,16.70
2018-07-03T05:40:20.712Z,16.80
2018-07-03T05:42:53.958Z,16.90
2018-07-03T05:45:27.429Z,17.00
2018-07-03T05:48:00.251Z,17.10
2018-07-03T05:50:32.649Z,17.20
2018-07-03T05:53:05.293Z,17.30
2018-07-03T05:55:38.050Z,17.40
2018-07-03T05:58:10.480Z,17.50
2018-07-03T06:00:43.013Z,17.60
2018-07-03T06:03:15.483Z,17.70
2018-07-03T06:05:47.917Z,17.80
2018-07-03T06:08:20.300Z,17.90
2018-07-03T06:10:52.717Z,18.00
2018-07-03T06:13:25.084Z,18.00
2018-07-03T06:15:57.471Z,18.20
2018-07-03T06:18:29.872Z,18.20
2018-07-03T06:21:02.257Z,18.30
2018-07-03T06:23:34.661Z,18.40
2018-07-03T06:26:07.192Z,18.50
2018-07-03T06:28:39.636Z,18.50
2018-07-03T06:31:12.075Z,18.60
2018-07-03T06:33:44.542Z,18.70
2018-07-03T06:36:16.941Z,18.70
2018-07-03T06:38:49.365Z,18.80
2018-07-03T06:41:21.852Z,18.90
2018-07-03T06:43:54.267Z,19.00
2018-07-03T06:46:26.677Z,19.00
2018-07-03T06:48:59.071Z,19.10
2018-07-03T06:51:31.591Z,19.20
2018-07-03T06:54:04.004Z,19.30
2018-07-03T06:56:36.406Z,19.40
2018-07-03T06:59:08.881Z,19.40
2018-07-03T07:01:42.610Z,19.50
2018-07-03T07:04:15.106Z,19.50
2018-07-03T07:06:47.510Z,19.60
2018-07-03T07:09:20.093Z,19.70
2018-07-03T07:11:52.898Z,19.70
2018-07-03T07:14:26.550Z,19.80
2018-07-03T07:17:00.773Z,19.90
2018-07-03T07:19:34.351Z,20.00
2018-07-03T07:22:08.150Z,20.00
2018-07-03T07:24:42.157Z,20.10
2018-07-03T07:27:16.644Z,20.20
2018-07-03T07:29:50.975Z,20.30
2018-07-03T07:32:23.589Z,20.30
2018-07-03T07:34:56.010Z,20.40
2018-07-03T07:37:28.488Z,20.40
2018-07-03T07:40:00.916Z,20.50
2018-07-03T07:42:33.302Z,20.60
2018-07-03T07:45:08.390Z,20.70
2018-07-03T07:47:40.917Z,20.70
2018-07-03T07:50:13.426Z,20.90
2018-07-03T07:55:17.781Z,21.10
2018-07-03T07:57:50.277Z,21.20
2018-07-03T08:00:22.879Z,21.20
2018-07-03T08:02:55.337Z,21.30
2018-07-03T08:05:27.805Z,21.30
2018-07-03T08:08:00.207Z,21.40
2018-07-03T08:10:33.061Z,21.50
2018-07-03T08:13:05.517Z,21.60
2018-07-03T08:15:37.935Z,21.70
2018-07-03T08:18:10.390Z,21.80
2018-07-03T08:20:42.875Z,21.80
2018-07-03T08:23:15.271Z,21.90
2018-07-03T08:25:47.702Z,22.00
2018-07-03T08:28:20.130Z,22.20
2018-07-03T08:30:52.531Z,22.10
2018-07-03T08:33:24.979Z,22.20
2018-07-03T08:35:57.410Z,22.40
2018-07-03T08:38:29.864Z,22.50
2018-07-03T08:41:02.271Z,22.50
2018-07-03T08:43:34.661Z,22.60
2018-07-03T08:46:07.139Z,22.60
2018-07-03T08:48:39.597Z,22.70
2018-07-03T08:51:12.044Z,22.70
2018-07-03T08:53:44.432Z,22.70
2018-07-03T08:56:16.893Z,22.80
2018-07-03T08:58:49.267Z,22.90
2018-07-03T09:01:21.828Z,23.00
2018-07-03T09:03:54.310Z,23.10
2018-07-03T09:06:26.806Z,23.20
2018-07-03T09:08:59.209Z,23.30
2018-07-03T09:11:31.665Z,23.30
2018-07-03T09:14:04.317Z,23.40
2018-07-03T09:16:36.805Z,23.40
2018-07-03T09:19:09.512Z,23.50
2018-07-03T09:21:41.937Z,23.60
2018-07-03T09:24:14.358Z,23.70
2018-07-03T09:26:46.768Z,23.70
2018-07-03T09:29:19.183Z,23.70
2018-07-03T09:31:51.632Z,23.90
2018-07-03T09:34:24.039Z,24.00
2018-07-03T09:36:56.472Z,24.10
2018-07-03T09:39:28.913Z,24.20
2018-07-03T09:42:01.366Z,24.30
2018-07-03T09:47:05.822Z,24.30
2018-07-03T09:52:10.188Z,24.40
2018-07-03T09:54:42.628Z,24.50
2018-07-03T09:57:15.104Z,24.60
2018-07-03T09:59:47.568Z,24.80
2018-07-03T10:04:51.867Z,25.00
2018-07-03T10:07:24.258Z,25.10
2018-07-03T10:09:56.636Z,25.30
2018-07-03T10:12:29.017Z,25.40
2018-07-03T10:15:01.407Z,25.50
2018-07-03T10:17:33.826Z,25.60
2018-07-03T10:20:06.480Z,25.70
2018-07-03T10:22:38.972Z,25.70
2018-07-03T10:25:11.429Z,25.80
2018-07-03T10:27:43.831Z,25.90
2018-07-03T10:30:18.304Z,25.90
2018-07-03T10:32:50.790Z,25.90
2018-07-03T10:35:23.229Z,25.80
2018-07-03T10:37:55.892Z,25.80
2018-07-03T10:40:28.281Z,25.90
2018-07-03T10:43:00.690Z,25.90
2018-07-03T10:45:33.068Z,26.00
2018-07-03T10:48:05.570Z,26.00
2018-07-03T10:50:38.280Z,25.80
2018-07-03T10:53:10.693Z,25.60
2018-07-03T10:55:43.150Z,25.40
2018-07-03T10:58:15.614Z,25.30
2018-07-03T11:00:48.032Z,25.10
2018-07-03T11:03:20.443Z,25.00
2018-07-03T11:05:52.836Z,24.80
2018-07-03T11:08:25.232Z,24.80
2018-07-03T11:10:57.749Z,24.70
2018-07-03T11:13:30.256Z,24.70
2018-07-03T11:16:02.649Z,24.70
2018-07-03T11:18:35.195Z,25.00
2018-07-03T11:21:08.061Z,25.30
2018-07-03T11:23:40.511Z,25.80
2018-07-03T11:26:12.902Z,26.10
2018-07-03T11:28:45.303Z,26.20
2018-07-03T11:31:17.736Z,26.30
2018-07-03T11:33:50.181Z,26.20
2018-07-03T11:36:22.640Z,26.10
2018-07-03T11:38:55.108Z,25.90
2018-07-03T11:41:27.524Z,26.10
2018-07-03T11:43:59.932Z,26.30
2018-07-03T11:49:04.602Z,26.50
2018-07-03T11:51:37.098Z,26.60
2018-07-03T11:54:09.526Z,26.70
2018-07-03T11:56:41.935Z,26.70
2018-07-03T11:59:14.461Z,26.80
2018-07-03T12:01:46.932Z,26.80
2018-07-03T12:04:19.394Z,26.70
2018-07-03T12:06:51.837Z,26.60
2018-07-03T12:09:24.275Z,26.80
2018-07-03T12:11:56.849Z,27.20
2018-07-03T12:17:01.125Z,27.70
2018-07-03T12:19:33.611Z,27.90
2018-07-03T12:22:08.537Z,28.10
2018-07-03T12:24:41.061Z,28.20
2018-07-03T12:27:13.581Z,28.20
2018-07-03T12:29:45.999Z,28.40
2018-07-03T12:32:18.547Z,28.30
2018-07-03T12:34:50.934Z,28.20
2018-07-03T12:37:23.357Z,28.20
2018-07-03T12:39:55.729Z,28.30
2018-07-03T12:42:28.169Z,28.40
2018-07-03T12:45:00.572Z,28.50
2018-07-03T12:47:33.010Z,28.60
2018-07-03T12:50:05.829Z,28.50
2018-07-03T12:52:38.312Z,28.50
2018-07-03T12:55:10.733Z,28.80
2018-07-03T12:57:43.152Z,28.80
2018-07-03T13:00:15.652Z,28.90
2018-07-03T13:02:48.069Z,29.00
2018-07-03T13:05:20.485Z,28.80
2018-07-03T13:07:52.914Z,28.70
2018-07-03T13:10:25.382Z,28.70
2018-07-03T13:12:57.764Z,28.60
2018-07-03T13:15:30.173Z,28.60
2018-07-03T13:18:07.266Z,28.70
2018-07-03T13:20:39.740Z,29.10
2018-07-03T13:23:12.705Z,29.30
2018-07-03T13:25:45.184Z,29.10
2018-07-03T13:28:17.694Z,29.20
2018-07-03T13:30:50.212Z,29.00
2018-07-03T13:33:22.712Z,28.90
2018-07-03T13:35:55.176Z,28.80
2018-07-03T13:38:28.504Z,29.00
2018-07-03T13:41:00.949Z,29.30
2018-07-03T13:43:33.369Z,29.40
2018-07-03T13:46:05.776Z,29.30
2018-07-03T13:48:38.301Z,29.10
2018-07-03T13:51:10.745Z,29.00
2018-07-03T13:53:43.130Z,29.00
2018-07-03T13:56:15.561Z,29.40
2018-07-03T13:58:47.927Z,29.80
2018-07-03T14:01:20.338Z,29.90
2018-07-03T14:03:52.847Z,30.10
2018-07-03T14:06:25.242Z,30.50
2018-07-03T14:08:57.760Z,31.00
2018-07-03T14:11:30.125Z,31.20
2018-07-03T14:14:02.589Z,30.90
2018-07-03T14:16:34.974Z,30.90
2018-07-03T14:19:07.457Z,30.90
2018-07-03T14:21:39.853Z,31.00
2018-07-03T14:24:12.352Z,31.30
2018-07-03T14:26:44.742Z,31.50
2018-07-03T14:29:17.204Z,31.70
2018-07-03T14:31:49.681Z,31.90
2018-07-03T14:34:22.175Z,31.90
2018-07-03T14:36:54.751Z,31.90
2018-07-03T14:39:27.157Z,31.90
2018-07-03T14:41:59.566Z,31.90
2018-07-03T14:44:31.973Z,31.80
2018-07-03T14:47:04.500Z,31.60
2018-07-03T14:49:36.930Z,31.50
2018-07-03T14:52:09.436Z,31.60
2018-07-03T14:54:41.874Z,31.90
2018-07-03T14:57:14.487Z,32.40
2018-07-03T14:59:46.896Z,32.70
2018-07-03T15:02:19.387Z,32.40
2018-07-03T15:04:51.817Z,32.40
2018-07-03T15:07:24.238Z,32.20
2018-07-03T15:09:56.666Z,32.20
2018-07-03T15:12:29.097Z,32.30
2018-07-03T15:15:01.579Z,32.10
2018-07-03T15:17:33.977Z,32.00
2018-07-03T15:20:06.517Z,31.90
2018-07-03T15:22:38.963Z,32.00
2018-07-03T15:25:11.389Z,32.00
2018-07-03T15:27:43.876Z,31.70
2018-07-03T15:30:20.532Z,31.20
2018-07-03T15:32:52.962Z,30.70
2018-07-03T15:35:25.322Z,30.50
2018-07-03T15:37:58.101Z,30.60
2018-07-03T15:40:30.509Z,30.80
2018-07-03T15:43:03.008Z,31.20
2018-07-03T15:45:35.493Z,31.40
2018-07-03T15:48:07.996Z,31.10
2018-07-03T15:50:40.379Z,30.90
2018-07-03T15:53:12.756Z,30.70
2018-07-03T15:55:45.192Z,30.70
2018-07-03T15:58:17.564Z,30.80
2018-07-03T16:00:49.946Z,30.80
2018-07-03T16:05:58.920Z,30.80
2018-07-03T16:09:40.492Z,30.70
2018-07-03T16:12:12.900Z,30.70
2018-07-03T16:14:45.303Z,30.80
2018-07-03T16:17:17.889Z,30.70
2018-07-03T16:19:55.283Z,30.40
2018-07-03T16:22:27.713Z,30.30
2018-07-03T16:25:00.193Z,30.30
2018-07-03T16:27:32.604Z,30.40
2018-07-03T16:30:05.681Z,30.60
2018-07-03T16:32:38.460Z,30.70
2018-07-03T16:35:10.872Z,30.70
2018-07-03T16:37:43.309Z,30.40
2018-07-03T16:40:15.708Z,30.40
2018-07-03T16:42:48.208Z,30.40
2018-07-03T16:45:20.662Z,30.50
2018-07-03T16:47:53.245Z,30.60
2018-07-03T16:50:25.701Z,30.60
2018-07-03T16:52:58.256Z,30.40
2018-07-03T16:55:30.671Z,30.20
2018-07-03T16:58:03.067Z,30.10
2018-07-03T17:00:35.480Z,30.00
2018-07-03T17:03:08.138Z,30.00
2018-07-03T17:05:40.544Z,29.90
2018-07-03T17:08:12.939Z,29.80
2018-07-03T17:10:45.414Z,29.70
2018-07-03T17:13:17.797Z,29.50
2018-07-03T17:15:50.206Z,29.50
2018-07-03T17:18:22.651Z,29.40
2018-07-03T17:23:27.334Z,28.90
2018-07-03T17:25:59.776Z,28.60
2018-07-03T17:28:32.229Z,28.40
2018-07-03T17:31:04.627Z,28.30
2018-07-03T17:33:37.095Z,28.20
2018-07-03T17:36:10.392Z,28.00
2018-07-03T17:38:42.803Z,27.90
2018-07-03T17:41:37.203Z,27.70
2018-07-03T17:45:33.391Z,27.60
2018-07-03T17:48:07.061Z,27.40
2018-07-03T17:50:39.598Z,27.00
2018-07-03T17:53:12.090Z,26.80
2018-07-03T17:55:44.577Z,26.60
2018-07-03T17:58:17.092Z,26.40
2018-07-03T18:00:49.632Z,26.20
2018-07-03T18:03:22.140Z,26.10
2018-07-03T18:05:54.582Z,26.00
2018-07-03T18:08:27.034Z,25.90
2018-07-03T18:10:59.481Z,25.70
2018-07-03T18:13:31.985Z,25.60
2018-07-03T18:16:04.387Z,25.60
2018-07-03T18:18:36.939Z,25.50
2018-07-03T18:21:09.571Z,25.20
2018-07-03T18:23:42.278Z,25.00
2018-07-03T18:26:14.685Z,24.90
2018-07-03T18:28:47.341Z,24.70
2018-07-03T18:31:19.738Z,24.60
2018-07-03T18:33:52.188Z,24.50
2018-07-03T18:36:24.876Z,24.30
2018-07-03T18:38:57.218Z,24.30
2018-07-03T18:41:29.656Z,24.30
2018-07-03T18:44:02.435Z,24.30
2018-07-03T18:46:34.924Z,24.20
2018-07-03T18:49:07.388Z,24.20
2018-07-03T18:51:39.790Z,24.20
2018-07-03T18:54:12.185Z,24.20
2018-07-03T18:56:44.561Z,24.20
2018-07-03T18:59:16.979Z,24.10
2018-07-03T19:01:49.385Z,24.00
2018-07-03T19:04:21.777Z,23.90
2018-07-03T19:06:54.219Z,23.80
2018-07-03T19:09:26.662Z,23.80
2018-07-03T19:11:59.087Z,23.80
2018-07-03T19:14:31.528Z,23.70
2018-07-03T19:17:04.012Z,23.60
2018-07-03T19:19:36.597Z,23.50
2018-07-03T19:22:09.075Z,23.40
2018-07-03T19:24:41.532Z,23.40
2018-07-03T19:27:13.928Z,23.20
2018-07-03T19:29:46.317Z,23.20
2018-07-03T19:32:18.726Z,23.10
2018-07-03T19:34:51.204Z,23.00
2018-07-03T19:37:23.609Z,22.90
2018-07-03T19:39:56.082Z,22.80
2018-07-03T19:42:28.690Z,22.70
2018-07-03T19:45:02.623Z,22.50
2018-07-03T19:47:36.290Z,22.40
2018-07-03T19:50:08.869Z,22.20
2018-07-03T19:52:42.172Z,22.10
2018-07-03T19:55:14.614Z,22.00
2018-07-03T19:57:47.024Z,21.90
2018-07-03T20:00:19.442Z,21.80
2018-07-03T20:02:55.177Z,21.70
2018-07-03T20:05:29.185Z,21.60
2018-07-03T20:08:02.571Z,21.50
2018-07-03T20:10:35.405Z,21.50
2018-07-03T20:13:10.745Z,21.30
2018-07-03T20:15:43.471Z,21.30
2018-07-03T20:18:18.105Z,21.20
2018-07-03T20:20:50.979Z,21.10
2018-07-03T20:23:23.554Z,21.00
2018-07-03T20:25:56.034Z,20.90
2018-07-03T20:28:28.448Z,20.70
2018-07-03T20:31:01.171Z,20.60
2018-07-03T20:33:33.580Z,20.50
2018-07-03T20:36:06.556Z,20.40
2018-07-03T20:38:39.308Z,20.30
2018-07-03T20:41:12.536Z,20.20
2018-07-03T20:43:44.946Z,20.10
2018-07-03T20:46:17.934Z,20.10
2018-07-03T20:48:50.464Z,19.90
2018-07-03T20:51:22.975Z,19.90
2018-07-03T20:53:55.768Z,19.70
2018-07-03T20:56:28.439Z,19.70
2018-07-03T20:59:01.002Z,19.50
2018-07-03T21:01:35.367Z,19.50
2018-07-03T21:04:09.251Z,19.40
2018-07-03T21:06:43.091Z,19.30
2018-07-03T21:09:21.365Z,19.30
2018-07-03T21:11:55.311Z,19.20
2018-07-03T21:14:29.055Z,19.20
2018-07-03T21:17:02.841Z,19.10
2018-07-03T21:19:36.572Z,19.10
2018-07-03T21:22:12.829Z,18.90
2018-07-03T21:24:46.852Z,18.80
2018-07-03T21:27:20.650Z,18.80
2018-07-03T21:29:54.458Z,18.70
2018-07-03T21:32:28.322Z,18.60
2018-07-03T21:35:02.145Z,18.60
2018-07-03T21:37:36.030Z,18.60
2018-07-03T21:40:11.330Z,18.50
2018-07-03T21:42:45.574Z,18.50
2018-07-03T21:45:19.357Z,18.40
2018-07-03T21:47:53.167Z,18.40
2018-07-03T21:50:27.003Z,18.40
2018-07-03T21:53:00.868Z,18.30
2018-07-03T21:55:34.832Z,18.30
2018-07-03T21:58:08.646Z,18.30
2018-07-03T22:00:44.809Z,18.20
2018-07-03T22:03:18.718Z,18.20
2018-07-03T22:05:52.492Z,18.20
2018-07-03T22:08:26.291Z,18.10
2018-07-03T22:11:00.115Z,18.10
2018-07-03T22:13:33.869Z,18.00
2018-07-03T22:16:07.614Z,17.90
2018-07-03T22:18:41.360Z,17.80
2018-07-03T22:21:15.269Z,17.70
2018-07-03T22:23:49.095Z,17.70
2018-07-03T22:26:22.795Z,17.70
2018-07-03T22:28:56.529Z,17.60
2018-07-03T22:31:30.333Z,17.60
2018-07-03T22:34:04.052Z,17.50
2018-07-03T22:36:37.934Z,17.40
2018-07-03T22:39:12.112Z,17.40
2018-07-03T22:41:45.940Z,17.40
2018-07-03T22:44:19.695Z,17.40
2018-07-03T22:46:53.598Z,17.30
2018-07-03T22:49:27.378Z,17.30
2018-07-03T22:52:01.202Z,17.20
2018-07-03T22:54:35.010Z,17.20
2018-07-03T22:57:08.916Z,17.10
2018-07-03T22:59:42.714Z,17.10
2018-07-03T23:02:16.524Z,17.00
2018-07-03T23:04:50.279Z,17.00
2018-07-03T23:07:24.185Z,16.90
2018-07-03T23:09:58.041Z,16.90
2018-07-03T23:12:31.929Z,16.80
2018-07-03T23:15:05.734Z,16.80
2018-07-03T23:17:39.674Z,16.70
2018-07-03T23:20:13.437Z,16.60
2018-07-03T23:22:47.307Z,16.60
2018-07-03T23:25:21.062Z,16.50
2018-07-03T23:27:54.962Z,16.40
2018-07-03T23:30:28.729Z,16.40
2018-07-03T23:33:02.612Z,16.30
2018-07-03T23:35:36.484Z,16.30
2018-07-03T23:38:10.285Z,16.30
2018-07-03T23:40:44.142Z,16.30
2018-07-03T23:43:17.952Z,16.30
2018-07-03T23:45:54.435Z,16.30
2018-07-03T23:48:49.192Z,16.20
2018-07-03T23:51:50.155Z,16.20
2018-07-03T23:54:51.236Z,16.20
2018-07-03T23:57:52.010Z,16.10
